Time;durP1;ratioP1;P1;durP2;ratioP2;P2;SDS_P1;SDS_P2;PMS_P1;PMS_P2;Temp;Humidity;BMP_temperature;BMP_pressure;BME280_temperature;BME280_humidity;BME280_pressure;Samples;Min_cycle;Max_cycle;Signal;HPM_P1;HPM_P2
2021/07/29 00:00:00;;;;;;;18.30;14.20;;;;;;;;;;5017587;28;20083;-62
2021/07/29 00:02:26;;;;;;;22.20;14.38;;;;;;;;;;5020910;28;20144;-63
2021/07/29 00:04:52;;;;;;;22.98;13.70;;;;;;;;;;5020368;28;20036;-62
2021/07/29 00:07:18;;;;;;;22.08;13.63;;;;;;;;;;5017728;28;20037;-62
2021/07/29 00:09:47;;;;;;;21.67;14.52;;;;;;;;;;5019965;28;20038;-63
2021/07/29 00:12:14;;;;;;;21.23;13.82;;;;;;;;;;5024674;28;20037;-62
2021/07/29 00:14:46;;;;;;;19.80;13.60;;;;;;;;;;5021740;28;20109;-63
2021/07/29 00:17:27;;;;;;;21.90;13.52;;;;;;;;;;5025612;28;20033;-63
2021/07/29 00:19:53;;;;;;;18.58;13.00;;;;;;;;;;5018670;28;20029;-63
2021/07/29 00:22:19;;;;;;;21.55;12.95;;;;;;;;;;5017960;28;20041;-63
2021/07/29 00:24:45;;;;;;;17.75;12.60;;;;;;;;;;5020912;28;20113;-62
2021/07/29 00:27:11;;;;;;;18.23;12.93;;;;;;;;;;5018965;28;20136;-63
2021/07/29 00:29:37;;;;;;;19.90;12.85;;;;;;;;;;5018116;28;20033;-63
2021/07/29 00:32:04;;;;;;;17.27;12.70;;;;;;;;;;5018652;28;20030;-63
2021/07/29 00:34:30;;;;;;;16.08;12.13;;;;;;;;;;5023505;28;20033;-62
2021/07/29 00:36:56;;;;;;;16.73;12.13;;;;;;;;;;5020389;28;20025;-63
2021/07/29 00:39:22;;;;;;;15.45;11.95;;;;;;;;;;5020725;28;20032;-63
2021/07/29 00:41:49;;;;;;;15.48;11.45;;;;;;;;;;5023129;28;20061;-63
2021/07/29 00:44:14;;;;;;;17.33;11.98;;;;;;;;;;5024093;28;20084;-63
2021/07/29 00:46:40;;;;;;;15.98;12.02;;;;;;;;;;5022502;28;20074;-63
2021/07/29 00:49:06;;;;;;;17.10;12.27;;;;;;;;;;5018934;28;20033;-63
2021/07/29 00:51:34;;;;;;;15.65;11.25;;;;;;;;;;5018124;28;20037;-63
2021/07/29 00:54:01;;;;;;;;;;;;;;;;;;5018429;28;20088;-63
2021/07/29 00:56:29;;;;;;;15.48;11.25;;;;;;;;;;5020951;28;19948;-63
2021/07/29 00:58:55;;;;;;;17.67;11.60;;;;;;;;;;5023696;28;20022;-63
2021/07/29 01:01:21;;;;;;;19.70;11.60;;;;;;;;;;5021921;28;20068;-63
2021/07/29 01:03:47;;;;;;;15.75;11.27;;;;;;;;;;5019543;28;20088;-63
2021/07/29 01:06:13;;;;;;;15.52;11.23;;;;;;;;;;5017767;28;20568;-62
2021/07/29 01:08:57;;;;;;;18.20;11.48;;;;;;;;;;5020782;28;20108;-63
2021/07/29 01:11:23;;;;;;;17.88;11.07;;;;;;;;;;5025845;28;20040;-63
2021/07/29 01:13:49;;;;;;;15.10;10.98;;;;;;;;;;5023676;28;20085;-63
2021/07/29 01:16:15;;;;;;;17.20;11.10;;;;;;;;;;5019830;28;20037;-63
2021/07/29 01:18:41;;;;;;;15.20;10.63;;;;;;;;;;5024859;28;20039;-64
2021/07/29 01:21:07;;;;;;;13.80;10.23;;;;;;;;;;5021740;28;20037;-64
2021/07/29 01:23:33;;;;;;;12.10;9.07;;;;;;;;;;5022919;28;20045;-64
2021/07/29 01:25:59;;;;;;;17.95;9.48;;;;;;;;;;5022934;28;20107;-64
2021/07/29 01:28:25;;;;;;;12.85;9.82;;;;;;;;;;5021099;28;20041;-64
2021/07/29 01:30:51;;;;;;;15.77;9.45;;;;;;;;;;5024506;28;20032;-64
2021/07/29 01:33:18;;;;;;;14.45;11.05;;;;;;;;;;5026177;28;20034;-65
2021/07/29 01:35:44;;;;;;;13.18;10.82;;;;;;;;;;5027794;28;20124;-64
2021/07/29 01:38:10;;;;;;;16.88;11.95;;;;;;;;;;5024845;28;20105;-64
2021/07/29 01:40:36;;;;;;;12.55;11.13;;;;;;;;;;5023444;28;20037;-65
2021/07/29 01:43:02;;;;;;;15.55;11.15;;;;;;;;;;5019065;28;20038;-64
2021/07/29 01:45:28;;;;;;;17.40;11.65;;;;;;;;;;5026343;28;20095;-64
2021/07/29 01:47:54;;;;;;;19.70;11.63;;;;;;;;;;5026215;28;20503;-64
2021/07/29 01:50:20;;;;;;;15.70;11.35;;;;;;;;;;5021850;28;20029;-64
2021/07/29 01:52:46;;;;;;;18.67;12.02;;;;;;;;;;5020928;28;20748;-64
2021/07/29 01:55:12;;;;;;;19.40;12.60;;;;;;;;;;5024457;28;20473;-65
2021/07/29 01:57:38;;;;;;;14.07;12.35;;;;;;;;;;5025422;28;20117;-64
2021/07/29 02:00:05;;;;;;;16.88;12.20;;;;;;;;;;5024244;28;20107;-64
2021/07/29 02:02:31;;;;;;;17.33;11.68;;;;;;;;;;5023594;28;20092;-64
2021/07/29 02:04:57;;;;;;;16.98;12.02;;;;;;;;;;5021288;28;20083;-64
2021/07/29 02:07:23;;;;;;;14.73;11.45;;;;;;;;;;5023292;28;20037;-64
2021/07/29 02:09:49;;;;;;;18.17;11.95;;;;;;;;;;5023795;28;20061;-64
2021/07/29 02:12:15;;;;;;;15.75;12.23;;;;;;;;;;5023473;28;20636;-64
2021/07/29 02:14:41;;;;;;;15.77;12.20;;;;;;;;;;5021782;28;20088;-64
2021/07/29 02:17:07;;;;;;;18.52;12.25;;;;;;;;;;5023977;28;20113;-64
2021/07/29 02:19:33;;;;;;;18.52;12.88;;;;;;;;;;5018577;28;20121;-64
2021/07/29 02:21:59;;;;;;;20.02;12.63;;;;;;;;;;5023006;28;20037;-64
2021/07/29 02:24:25;;;;;;;16.52;12.77;;;;;;;;;;5023112;28;20639;-64
2021/07/29 02:26:51;;;;;;;19.98;13.13;;;;;;;;;;5024257;28;20042;-64
2021/07/29 02:29:17;;;;;;;20.15;12.43;;;;;;;;;;5024289;28;20025;-65
2021/07/29 02:31:43;;;;;;;16.95;13.00;;;;;;;;;;5022234;28;20623;-64
2021/07/29 02:34:10;;;;;;;16.25;11.55;;;;;;;;;;5021425;28;20026;-64
2021/07/29 02:36:36;;;;;;;14.50;12.55;;;;;;;;;;5026012;28;20029;-64
2021/07/29 02:39:02;;;;;;;15.85;11.25;;;;;;;;;;5027304;28;20364;-65
2021/07/29 02:41:28;;;;;;;16.65;12.20;;;;;;;;;;5029225;28;20511;-65
2021/07/29 02:43:54;;;;;;;17.33;12.32;;;;;;;;;;5023745;28;20111;-64
2021/07/29 02:46:20;;;;;;;12.35;10.93;;;;;;;;;;5024506;28;20034;-64
2021/07/29 02:48:46;;;;;;;12.95;11.10;;;;;;;;;;5026803;28;20622;-65
2021/07/29 02:51:12;;;;;;;17.20;10.85;;;;;;;;;;5022364;28;20037;-65
2021/07/29 02:53:38;;;;;;;12.40;10.27;;;;;;;;;;5023925;28;20032;-64
2021/07/29 02:56:05;;;;;;;13.52;10.43;;;;;;;;;;5022288;28;20078;-64
2021/07/29 02:58:31;;;;;;;14.48;10.65;;;;;;;;;;5018943;28;20041;-64
2021/07/29 03:00:57;;;;;;;12.20;10.57;;;;;;;;;;5022826;28;20032;-64
2021/07/29 03:03:23;;;;;;;13.35;10.57;;;;;;;;;;5026708;28;20037;-64
2021/07/29 03:05:49;;;;;;;16.05;11.93;;;;;;;;;;5024584;28;20469;-64
2021/07/29 03:08:15;;;;;;;13.07;10.50;;;;;;;;;;5020068;28;20037;-64
2021/07/29 03:10:45;;;;;;;13.55;10.50;;;;;;;;;;5015078;28;20025;-64
2021/07/29 03:13:11;;;;;;;16.75;11.35;;;;;;;;;;5022007;28;20029;-64
2021/07/29 03:15:37;;;;;;;16.98;11.23;;;;;;;;;;5023427;28;20029;-64
2021/07/29 03:18:03;;;;;;;12.80;10.30;;;;;;;;;;5025005;28;20084;-64
2021/07/29 03:20:29;;;;;;;15.75;10.10;;;;;;;;;;5022674;28;20029;-64
2021/07/29 03:22:55;;;;;;;17.10;10.73;;;;;;;;;;5016509;28;20559;-64
2021/07/29 03:25:21;;;;;;;14.90;10.32;;;;;;;;;;5022455;28;20033;-64
2021/07/29 03:27:47;;;;;;;15.85;10.68;;;;;;;;;;5025622;28;20052;-64
2021/07/29 03:30:13;;;;;;;16.70;12.48;;;;;;;;;;5021988;28;20030;-65
2021/07/29 03:32:39;;;;;;;16.70;11.23;;;;;;;;;;5022512;28;20124;-64
2021/07/29 03:35:05;;;;;;;15.45;11.63;;;;;;;;;;5018654;28;20048;-64
2021/07/29 03:37:31;;;;;;;16.67;11.18;;;;;;;;;;5022720;28;20033;-64
2021/07/29 03:40:03;;;;;;;16.65;10.93;;;;;;;;;;5025932;28;20029;-64
2021/07/29 03:42:30;;;;;;;14.70;11.05;;;;;;;;;;5019950;28;20092;-65
2021/07/29 03:44:56;;;;;;;18.63;11.88;;;;;;;;;;5022761;28;20104;-64
2021/07/29 03:47:22;;;;;;;16.65;11.82;;;;;;;;;;5021935;28;20113;-65
2021/07/29 03:49:48;;;;;;;19.42;12.80;;;;;;;;;;5023530;28;20022;-65
2021/07/29 03:52:14;;;;;;;17.25;12.60;;;;;;;;;;5019316;28;20037;-65
2021/07/29 03:54:40;;;;;;;19.30;12.55;;;;;;;;;;5022526;28;20113;-65
2021/07/29 03:57:08;;;;;;;15.18;11.70;;;;;;;;;;5018538;28;20042;-65
2021/07/29 03:59:36;;;;;;;17.63;12.25;;;;;;;;;;5018057;28;20040;-65
2021/07/29 04:02:08;;;;;;;18.75;13.15;;;;;;;;;;5017828;28;20489;-65
2021/07/29 04:04:34;;;;;;;19.40;12.20;;;;;;;;;;5017984;28;20049;-65
2021/07/29 04:07:00;;;;;;;16.83;11.93;;;;;;;;;;5016927;28;20042;-65
2021/07/29 04:09:26;;;;;;;16.92;11.50;;;;;;;;;;5023094;28;20033;-64
2021/07/29 04:11:51;;;;;;;16.15;10.00;;;;;;;;;;5021943;28;20526;-64
2021/07/29 04:14:17;;;;;;;15.90;9.68;;;;;;;;;;5018304;28;20050;-64
2021/07/29 04:16:43;;;;;;;19.33;10.30;;;;;;;;;;5023532;28;20036;-64
2021/07/29 04:19:09;;;;;;;17.65;9.25;;;;;;;;;;5023897;28;20076;-64
2021/07/29 04:21:35;;;;;;;12.20;9.15;;;;;;;;;;5024517;28;20434;-64
2021/07/29 04:24:01;;;;;;;11.45;8.10;;;;;;;;;;5021208;28;20048;-64
2021/07/29 04:26:27;;;;;;;11.57;7.75;;;;;;;;;;5023690;28;20049;-64
2021/07/29 04:28:53;;;;;;;14.30;7.85;;;;;;;;;;5026118;28;20040;-64
2021/07/29 04:31:19;;;;;;;14.80;8.90;;;;;;;;;;5020183;28;20048;-64
2021/07/29 04:33:45;;;;;;;12.90;8.23;;;;;;;;;;5018907;28;20018;-64
2021/07/29 04:36:11;;;;;;;13.93;8.63;;;;;;;;;;5022155;28;20603;-64
2021/07/29 04:38:37;;;;;;;10.55;7.43;;;;;;;;;;5018719;28;20048;-64
2021/07/29 04:41:04;;;;;;;9.00;7.28;;;;;;;;;;5021668;28;20042;-64
2021/07/29 04:43:30;;;;;;;9.75;7.55;;;;;;;;;;5024482;28;20096;-64
2021/07/29 04:45:57;;;;;;;9.00;6.93;;;;;;;;;;5020528;28;20045;-64
2021/07/29 04:48:23;;;;;;;12.27;7.32;;;;;;;;;;5023051;28;20037;-65
2021/07/29 04:50:48;;;;;;;11.90;7.93;;;;;;;;;;5021796;28;20026;-64
2021/07/29 04:53:15;;;;;;;13.13;7.97;;;;;;;;;;5024623;28;20038;-65
2021/07/29 04:55:40;;;;;;;10.82;7.78;;;;;;;;;;5022175;28;20029;-65
2021/07/29 04:58:06;;;;;;;11.27;7.95;;;;;;;;;;5023391;28;20033;-64
2021/07/29 05:00:32;;;;;;;12.63;8.52;;;;;;;;;;5026621;28;20034;-64
2021/07/29 05:02:59;;;;;;;12.57;8.45;;;;;;;;;;5026135;28;20033;-64
2021/07/29 05:05:25;;;;;;;13.30;8.20;;;;;;;;;;5025712;28;20025;-65
2021/07/29 05:07:54;;;;;;;11.25;8.80;;;;;;;;;;5027331;28;20488;-65
2021/07/29 05:10:20;;;;;;;12.25;9.20;;;;;;;;;;5027186;28;20502;-64
2021/07/29 05:12:46;;;;;;;16.52;9.68;;;;;;;;;;5024538;28;20057;-64
2021/07/29 05:15:12;;;;;;;15.13;9.65;;;;;;;;;;5024188;28;20030;-64
2021/07/29 05:17:38;;;;;;;13.18;10.23;;;;;;;;;;5023909;28;20025;-65
2021/07/29 05:20:04;;;;;;;14.95;11.18;;;;;;;;;;5028306;28;21359;-65
2021/07/29 05:22:30;;;;;;;25.83;11.80;;;;;;;;;;5026967;28;20036;-64
2021/07/29 05:24:56;;;;;;;21.83;10.43;;;;;;;;;;5022650;28;20026;-65
2021/07/29 05:27:22;;;;;;;25.45;10.65;;;;;;;;;;5020581;28;20408;-65
2021/07/29 05:29:48;;;;;;;16.17;7.72;;;;;;;;;;5025820;28;20444;-64
2021/07/29 05:32:14;;;;;;;16.40;7.80;;;;;;;;;;5019985;28;20026;-64
2021/07/29 05:34:40;;;;;;;12.07;6.00;;;;;;;;;;5022216;28;20113;-65
2021/07/29 05:37:06;;;;;;;11.75;4.85;;;;;;;;;;5024555;28;20033;-64
2021/07/29 05:39:35;;;;;;;13.68;3.15;;;;;;;;;;5022712;28;20534;-65
2021/07/29 05:42:01;;;;;;;8.02;3.30;;;;;;;;;;5026011;28;20025;-64
2021/07/29 05:44:28;;;;;;;11.05;3.25;;;;;;;;;;5027011;28;20112;-64
2021/07/29 05:46:54;;;;;;;9.07;3.03;;;;;;;;;;5023498;28;20099;-64
2021/07/29 05:49:20;;;;;;;7.53;2.67;;;;;;;;;;5027129;28;20497;-64
2021/07/29 05:51:46;;;;;;;8.75;2.67;;;;;;;;;;5026143;28;20041;-64
2021/07/29 05:54:12;;;;;;;7.45;3.28;;;;;;;;;;5027180;28;20018;-64
2021/07/29 05:56:40;;;;;;;8.23;3.10;;;;;;;;;;5027294;28;20053;-64
2021/07/29 05:59:06;;;;;;;5.80;2.70;;;;;;;;;;5028202;28;20040;-64
2021/07/29 06:01:32;;;;;;;7.32;2.90;;;;;;;;;;5023789;28;20040;-64
2021/07/29 06:03:58;;;;;;;6.22;2.90;;;;;;;;;;5022126;28;20100;-64
2021/07/29 06:06:24;;;;;;;5.38;3.47;;;;;;;;;;5029032;28;20049;-64
2021/07/29 06:08:58;;;;;;;6.47;3.22;;;;;;;;;;5023211;28;20385;-65
2021/07/29 06:11:24;;;;;;;6.68;2.97;;;;;;;;;;5023051;28;20030;-64
2021/07/29 06:13:50;;;;;;;3.92;2.65;;;;;;;;;;5026302;28;20534;-64
2021/07/29 06:16:18;;;;;;;3.85;2.58;;;;;;;;;;5026620;28;20029;-64
2021/07/29 06:19:04;;;;;;;5.45;2.65;;;;;;;;;;5029540;28;20299;-64
2021/07/29 06:21:30;;;;;;;3.38;2.33;;;;;;;;;;5029324;28;20116;-65
2021/07/29 06:23:56;;;;;;;7.78;2.97;;;;;;;;;;5029664;28;20033;-66
2021/07/29 06:26:22;;;;;;;6.80;3.20;;;;;;;;;;5025292;28;20448;-65
2021/07/29 06:28:48;;;;;;;4.97;2.70;;;;;;;;;;5030377;28;20021;-65
2021/07/29 06:31:14;;;;;;;3.03;2.13;;;;;;;;;;5026646;28;20511;-65
2021/07/29 06:33:40;;;;;;;8.10;2.70;;;;;;;;;;5025850;28;20028;-65
2021/07/29 06:36:06;;;;;;;3.38;2.42;;;;;;;;;;5018286;28;20072;-65
2021/07/29 06:38:32;;;;;;;7.93;2.80;;;;;;;;;;4915182;28;20051;-64
2021/07/29 06:40:59;;;;;;;4.60;2.90;;;;;;;;;;4974908;28;75982;-64
2021/07/29 06:43:25;;;;;;;4.60;2.92;;;;;;;;;;4996738;28;20105;-64
2021/07/29 06:47:18;;;;;;;5.50;3.13;;;;;;;;;;4875199;27;20750;-63
2021/07/29 06:49:46;;;;;;;4.95;3.65;;;;;;;;;;5008265;28;20088;-65
2021/07/29 06:52:13;;;;;;;6.13;3.22;;;;;;;;;;5018502;28;20093;-64
2021/07/29 06:54:41;;;;;;;7.20;3.70;;;;;;;;;;5020929;28;20081;-64
2021/07/29 06:57:08;;;;;;;6.47;3.63;;;;;;;;;;5018009;28;20058;-64
2021/07/29 06:59:35;;;;;;;;;;;;;;;;;;5022758;28;20092;-64
2021/07/29 07:02:03;;;;;;;7.55;3.60;;;;;;;;;;5024406;28;19956;-64
2021/07/29 07:04:31;;;;;;;5.72;3.88;;;;;;;;;;5025398;28;20548;-64
2021/07/29 07:06:58;;;;;;;10.15;4.57;;;;;;;;;;4995762;28;20137;-63
2021/07/29 07:09:29;;;;;;;6.15;4.43;;;;;;;;;;5025406;28;20056;-63
2021/07/29 07:11:57;;;;;;;6.22;4.15;;;;;;;;;;5024117;28;20084;-64
2021/07/29 07:14:24;;;;;;;8.10;4.85;;;;;;;;;;5025822;28;20559;-64
2021/07/29 07:16:52;;;;;;;;;;;;;;;;;;5024454;28;20133;-64
2021/07/29 07:19:20;;;;;;;13.20;5.60;;;;;;;;;;5020498;28;19948;-64
2021/07/29 07:21:47;;;;;;;10.70;5.70;;;;;;;;;;5018822;28;20054;-64
2021/07/29 07:24:15;;;;;;;9.90;5.55;;;;;;;;;;5025675;28;20073;-64
2021/07/29 07:26:42;;;;;;;8.00;5.53;;;;;;;;;;5023839;28;20079;-64
2021/07/29 07:29:09;;;;;;;12.10;5.55;;;;;;;;;;5026535;28;20128;-64
2021/07/29 07:31:36;;;;;;;9.95;4.88;;;;;;;;;;5025818;28;20160;-64
2021/07/29 07:34:04;;;;;;;6.57;5.38;;;;;;;;;;5021109;28;20053;-64
2021/07/29 07:36:31;;;;;;;7.97;5.50;;;;;;;;;;5022006;28;20133;-64
2021/07/29 07:38:58;;;;;;;12.50;6.10;;;;;;;;;;5025045;28;20111;-64
2021/07/29 07:41:25;;;;;;;10.55;5.40;;;;;;;;;;5018547;28;20137;-64
2021/07/29 07:43:53;;;;;;;9.30;5.88;;;;;;;;;;5023656;28;20076;-64
2021/07/29 07:46:20;;;;;;;6.43;5.18;;;;;;;;;;5020424;28;20089;-63
2021/07/29 07:48:47;;;;;;;6.93;6.00;;;;;;;;;;5025110;28;20078;-64
2021/07/29 07:51:17;;;;;;;8.43;5.05;;;;;;;;;;5015664;28;20521;-64
2021/07/29 07:53:44;;;;;;;;;;;;;;;;;;5015517;28;20465;-64
2021/07/29 07:56:11;;;;;;;14.43;5.75;;;;;;;;;;5013423;28;19992;-64
2021/07/29 07:58:38;;;;;;;7.43;5.45;;;;;;;;;;5003128;28;20081;-64
2021/07/29 08:01:06;;;;;;;11.82;4.95;;;;;;;;;;5006018;28;20552;-64
2021/07/29 08:03:33;;;;;;;9.50;4.93;;;;;;;;;;5000840;28;20049;-63
2021/07/29 08:06:02;;;;;;;6.88;5.05;;;;;;;;;;5002458;28;20046;-64
2021/07/29 08:08:29;;;;;;;8.45;4.57;;;;;;;;;;5001911;28;20484;-64
2021/07/29 08:10:56;;;;;;;9.18;4.93;;;;;;;;;;4999610;28;20152;-64
2021/07/29 08:13:24;;;;;;;7.55;4.70;;;;;;;;;;5003069;28;20074;-63
2021/07/29 08:15:51;;;;;;;6.93;4.65;;;;;;;;;;5011533;28;20104;-64
2021/07/29 08:18:19;;;;;;;;;;;;;;;;;;5008672;28;20096;-63
2021/07/29 08:20:46;;;;;;;8.10;4.95;;;;;;;;;;5008892;28;19967;-64
2021/07/29 08:23:13;;;;;;;6.60;4.38;;;;;;;;;;5003076;28;20141;-64
2021/07/29 08:25:40;;;;;;;;;;;;;;;;;;5001341;28;20145;-64
2021/07/29 08:28:08;;;;;;;9.52;4.95;;;;;;;;;;5000424;28;20020;-64
2021/07/29 08:30:35;;;;;;;6.60;4.50;;;;;;;;;;5003151;28;20117;-64
2021/07/29 08:33:09;;;;;;;6.30;4.47;;;;;;;;;;5002037;28;20056;-64
2021/07/29 08:35:37;;;;;;;6.63;3.83;;;;;;;;;;5002708;28;20164;-64
2021/07/29 08:38:05;;;;;;;5.28;4.07;;;;;;;;;;5007367;28;20117;-64
2021/07/29 08:40:33;;;;;;;6.97;4.57;;;;;;;;;;5009302;28;20069;-64
2021/07/29 08:43:03;;;;;;;5.30;4.05;;;;;;;;;;5009128;28;20049;-64
2021/07/29 08:45:31;;;;;;;5.63;3.88;;;;;;;;;;5001590;28;20137;-64
2021/07/29 08:48:00;;;;;;;6.18;3.90;;;;;;;;;;5007925;28;20085;-64
2021/07/29 08:50:27;;;;;;;8.05;3.42;;;;;;;;;;5002829;28;20117;-64
2021/07/29 08:52:54;;;;;;;;;;;;;;;;;;5007151;28;20688;-64
2021/07/29 08:55:21;;;;;;;4.47;2.97;;;;;;;;;;5006450;28;19980;-64
2021/07/29 08:57:49;;;;;;;6.50;3.35;;;;;;;;;;5003982;28;20065;-64
2021/07/29 09:00:16;;;;;;;6.03;3.63;;;;;;;;;;5001451;28;20140;-63
2021/07/29 09:02:43;;;;;;;8.48;3.25;;;;;;;;;;4997267;28;20125;-64
2021/07/29 09:05:11;;;;;;;;;;;;;;;;;;5005280;28;20042;-64
2021/07/29 09:07:39;;;;;;;6.73;2.93;;;;;;;;;;4999875;28;20444;-64
2021/07/29 09:10:25;;;;;;;6.60;2.80;;;;;;;;;;5008487;28;20339;-65
2021/07/29 09:13:11;;;;;;;8.18;3.30;;;;;;;;;;5007323;28;20577;-64
2021/07/29 09:15:38;;;;;;;7.70;2.97;;;;;;;;;;5004056;28;20073;-64
2021/07/29 09:18:06;;;;;;;5.15;3.28;;;;;;;;;;5011018;28;20129;-64
2021/07/29 09:20:33;;;;;;;5.78;3.28;;;;;;;;;;5005545;28;20473;-64
2021/07/29 09:23:01;;;;;;;;;;;;;;;;;;5006359;28;20053;-64
2021/07/29 09:25:28;;;;;;;5.57;3.30;;;;;;;;;;5006553;28;19975;-64
2021/07/29 09:27:58;;;;;;;4.95;3.88;;;;;;;;;;5004003;28;20134;-64
2021/07/29 09:30:25;;;;;;;7.25;3.53;;;;;;;;;;4997442;28;20137;-64
2021/07/29 09:32:59;;;;;;;7.57;3.65;;;;;;;;;;5007694;28;20335;-64
2021/07/29 09:35:29;;;;;;;7.03;4.38;;;;;;;;;;5005214;28;20046;-65
2021/07/29 09:37:56;;;;;;;9.68;4.65;;;;;;;;;;5000287;28;20042;-64
2021/07/29 09:40:23;;;;;;;9.52;4.30;;;;;;;;;;5001959;28;20129;-64
2021/07/29 09:43:09;;;;;;;7.90;4.20;;;;;;;;;;5003988;28;20124;-65
2021/07/29 09:45:36;;;;;;;7.68;4.35;;;;;;;;;;5003078;28;20192;-64
2021/07/29 09:48:06;;;;;;;7.00;4.13;;;;;;;;;;4999944;28;20050;-64
2021/07/29 09:50:37;;;;;;;10.65;4.15;;;;;;;;;;4999948;28;20080;-64
2021/07/29 09:53:05;;;;;;;7.22;4.15;;;;;;;;;;5001224;28;20129;-65
2021/07/29 09:55:32;;;;;;;6.60;3.53;;;;;;;;;;5006111;28;20073;-64
2021/07/29 09:58:00;;;;;;;7.28;3.80;;;;;;;;;;5004338;28;20069;-64
2021/07/29 10:00:27;;;;;;;10.75;4.00;;;;;;;;;;5003880;28;20132;-64
2021/07/29 10:02:54;;;;;;;;;;;;;;;;;;5002240;28;20112;-64
2021/07/29 10:05:37;;;;;;;11.98;4.47;;;;;;;;;;5003026;28;20420;-64
2021/07/29 10:08:06;;;;;;;10.38;3.90;;;;;;;;;;5006092;28;20152;-64
2021/07/29 10:10:33;;;;;;;9.93;3.97;;;;;;;;;;5001140;28;20066;-64
2021/07/29 10:13:00;;;;;;;8.63;4.10;;;;;;;;;;5001037;28;20054;-64
2021/07/29 10:15:28;;;;;;;;;;;;;;;;;;5004577;28;20045;-65
2021/07/29 10:18:01;;;;;;;12.98;3.90;;;;;;;;;;5002295;28;19972;-64
2021/07/29 10:20:32;;;;;;;10.80;4.45;;;;;;;;;;5001391;28;20133;-64
2021/07/29 10:23:18;;;;;;;8.77;4.00;;;;;;;;;;5002989;28;20560;-64
2021/07/29 10:25:54;;;;;;;7.45;3.72;;;;;;;;;;5001931;28;20506;-64
2021/07/29 10:28:25;;;;;;;14.43;4.55;;;;;;;;;;5002764;28;20561;-64
2021/07/29 10:30:56;;;;;;;8.95;5.10;;;;;;;;;;5002734;28;20069;-64
2021/07/29 10:33:24;;;;;;;12.70;5.03;;;;;;;;;;5002728;28;20165;-64
2021/07/29 10:35:52;;;;;;;10.27;4.43;;;;;;;;;;4996591;28;20283;-64
2021/07/29 10:38:38;;;;;;;12.98;3.67;;;;;;;;;;5002664;28;20144;-63
2021/07/29 10:41:25;;;;;;;8.65;3.03;;;;;;;;;;5001775;28;20078;-64
2021/07/29 10:43:53;;;;;;;7.93;2.92;;;;;;;;;;5004135;28;20052;-63
2021/07/29 10:46:20;;;;;;;9.63;2.90;;;;;;;;;;5000868;28;21810;-63
2021/07/29 10:51:59;;;;;;;5.20;2.78;;;;;;;;;;5005327;28;20141;-63
2021/07/29 10:54:27;;;;;;;7.88;2.55;;;;;;;;;;5004984;28;20129;-63
2021/07/29 10:56:54;;;;;;;;;;;;;;;;;;5004983;28;20073;-63
2021/07/29 10:59:22;;;;;;;6.20;3.10;;;;;;;;;;5003257;28;19929;-64
2021/07/29 11:01:51;;;;;;;5.15;2.80;;;;;;;;;;4999094;28;20092;-64
2021/07/29 11:04:19;;;;;;;7.60;3.00;;;;;;;;;;4999205;28;20056;-64
2021/07/29 11:06:58;;;;;;;8.40;3.25;;;;;;;;;;5002625;28;20544;-63
2021/07/29 11:09:30;;;;;;;9.57;3.20;;;;;;;;;;5000927;28;20074;-64
2021/07/29 11:11:57;;;;;;;8.52;2.70;;;;;;;;;;5003205;28;20124;-64
2021/07/29 11:14:30;;;;;;;8.25;3.13;;;;;;;;;;4996355;28;20050;-64
2021/07/29 11:16:58;;;;;;;8.20;2.95;;;;;;;;;;5001069;28;20572;-64
2021/07/29 11:19:25;;;;;;;7.68;2.97;;;;;;;;;;5004402;28;20065;-65
2021/07/29 11:22:06;;;;;;;7.63;3.65;;;;;;;;;;5002764;28;20123;-65
2021/07/29 11:24:34;;;;;;;8.48;3.58;;;;;;;;;;4997095;28;20137;-64
2021/07/29 11:27:01;;;;;;;9.20;3.30;;;;;;;;;;5002553;28;20623;-64
2021/07/29 11:29:29;;;;;;;10.52;3.78;;;;;;;;;;5005987;28;20038;-64
2021/07/29 11:31:57;;;;;;;12.07;3.10;;;;;;;;;;5001222;28;20133;-64
2021/07/29 11:34:31;;;;;;;8.93;3.38;;;;;;;;;;5004308;28;20153;-63
2021/07/29 11:36:58;;;;;;;7.47;2.60;;;;;;;;;;5005472;28;20046;-64
2021/07/29 11:39:26;;;;;;;11.27;3.92;;;;;;;;;;4938103;28;65972;-64
2021/07/29 11:42:31;;;;;;;17.15;3.70;;;;;;;;;;5005060;28;20415;-64
2021/07/29 11:44:59;;;;;;;15.65;3.22;;;;;;;;;;4988823;28;20038;-64
2021/07/29 11:47:35;;;;;;;5.28;2.60;;;;;;;;;;4987446;28;20129;-64
2021/07/29 11:50:01;;;;;;;11.30;3.10;;;;;;;;;;4993655;28;20056;-64
2021/07/29 11:52:28;;;;;;;10.52;2.72;;;;;;;;;;4995521;28;20142;-65
2021/07/29 11:55:08;;;;;;;9.07;2.92;;;;;;;;;;4985868;28;20054;-64
2021/07/29 11:57:34;;;;;;;11.30;2.90;;;;;;;;;;4991918;28;20153;-64
2021/07/29 12:00:01;;;;;;;9.43;2.47;;;;;;;;;;4992460;28;20112;-63
2021/07/29 12:02:27;;;;;;;10.40;2.42;;;;;;;;;;4989804;28;20129;-63
2021/07/29 12:04:55;;;;;;;8.25;2.63;;;;;;;;;;4984568;28;20720;-63
2021/07/29 12:07:21;;;;;;;17.65;2.80;;;;;;;;;;4991636;28;20113;-63
2021/07/29 12:09:49;;;;;;;11.35;2.47;;;;;;;;;;4984186;28;20130;-61
2021/07/29 12:12:16;;;;;;;5.72;1.85;;;;;;;;;;4990590;28;20130;-61
2021/07/29 12:14:44;;;;;;;9.57;3.17;;;;;;;;;;4986056;28;20062;-62
2021/07/29 12:17:20;;;;;;;8.68;2.90;;;;;;;;;;4992073;28;20097;-62
2021/07/29 12:19:56;;;;;;;7.75;3.13;;;;;;;;;;4989458;28;20133;-62
2021/07/29 12:22:23;;;;;;;6.75;2.65;;;;;;;;;;4996315;28;20106;-62
2021/07/29 12:24:51;;;;;;;13.02;3.40;;;;;;;;;;4988474;28;20042;-62
2021/07/29 12:27:19;;;;;;;18.25;3.75;;;;;;;;;;4987182;28;20140;-62
2021/07/29 12:29:46;;;;;;;9.23;2.90;;;;;;;;;;4992479;28;20047;-62
2021/07/29 12:32:20;;;;;;;9.80;2.70;;;;;;;;;;4989240;28;20145;-62
2021/07/29 12:34:47;;;;;;;11.30;2.70;;;;;;;;;;4986396;28;20125;-62
2021/07/29 12:37:34;;;;;;;5.82;1.88;;;;;;;;;;4989062;28;20695;-62
2021/07/29 12:40:22;;;;;;;7.38;2.28;;;;;;;;;;4989208;28;20047;-62
2021/07/29 12:42:48;;;;;;;6.55;1.90;;;;;;;;;;4992343;28;20046;-62
2021/07/29 12:45:15;;;;;;;9.20;2.40;;;;;;;;;;4985356;28;20456;-62
2021/07/29 12:47:42;;;;;;;7.25;2.50;;;;;;;;;;4990233;28;20092;-62
2021/07/29 12:50:08;;;;;;;11.18;1.98;;;;;;;;;;4992311;28;20050;-62
2021/07/29 12:52:35;;;;;;;11.73;2.00;;;;;;;;;;4981005;28;20466;-62
2021/07/29 12:55:06;;;;;;;11.45;2.40;;;;;;;;;;4976473;28;20130;-62
2021/07/29 12:57:52;;;;;;;5.32;2.00;;;;;;;;;;4973822;28;20117;-62
2021/07/29 13:00:22;;;;;;;3.25;1.80;;;;;;;;;;4979617;28;20082;-62
2021/07/29 13:02:49;;;;;;;4.90;2.10;;;;;;;;;;4976320;28;20130;-62
2021/07/29 13:05:16;;;;;;;4.57;2.10;;;;;;;;;;4976833;28;20054;-62
2021/07/29 13:07:42;;;;;;;5.25;2.03;;;;;;;;;;4979296;28;20137;-62
2021/07/29 13:10:09;;;;;;;5.40;2.20;;;;;;;;;;4973610;28;20489;-62
2021/07/29 13:12:35;;;;;;;5.93;1.95;;;;;;;;;;4975067;28;20121;-62
2021/07/29 13:15:03;;;;;;;11.98;2.58;;;;;;;;;;4980444;28;20134;-62
2021/07/29 13:17:30;;;;;;;8.38;2.25;;;;;;;;;;4975828;28;20135;-62
2021/07/29 13:19:59;;;;;;;10.20;2.63;;;;;;;;;;4973021;28;20078;-62
2021/07/29 13:22:27;;;;;;;5.80;2.13;;;;;;;;;;4973632;28;20524;-62
2021/07/29 13:24:58;;;;;;;8.98;2.22;;;;;;;;;;4980982;28;20042;-62
2021/07/29 13:27:25;;;;;;;5.75;2.58;;;;;;;;;;4974978;28;20054;-63
2021/07/29 13:29:51;;;;;;;4.32;1.85;;;;;;;;;;4979679;28;20679;-62
2021/07/29 13:32:18;;;;;;;4.20;2.00;;;;;;;;;;4978320;28;20079;-62
2021/07/29 13:34:45;;;;;;;4.75;1.92;;;;;;;;;;4971276;28;20043;-62
2021/07/29 13:37:11;;;;;;;10.13;2.40;;;;;;;;;;4970820;28;20050;-62
2021/07/29 13:39:38;;;;;;;5.18;2.13;;;;;;;;;;4983095;28;20145;-62
2021/07/29 13:42:05;;;;;;;8.30;2.00;;;;;;;;;;4977116;28;20113;-62
2021/07/29 13:44:31;;;;;;;8.48;2.08;;;;;;;;;;4975162;28;20190;-63
2021/07/29 13:46:58;;;;;;;4.88;1.98;;;;;;;;;;4971337;28;20142;-62
2021/07/29 13:49:25;;;;;;;7.00;2.05;;;;;;;;;;4974553;28;20085;-62
2021/07/29 13:51:52;;;;;;;6.38;2.10;;;;;;;;;;4975819;28;20055;-62
2021/07/29 13:54:19;;;;;;;7.53;2.20;;;;;;;;;;4974124;28;20502;-62
2021/07/29 13:56:45;;;;;;;8.85;1.60;;;;;;;;;;4975278;28;20145;-62
2021/07/29 13:59:11;;;;;;;5.25;1.90;;;;;;;;;;4973446;28;20078;-63
2021/07/29 14:01:39;;;;;;;9.93;2.05;;;;;;;;;;4972429;28;20146;-62
2021/07/29 14:04:05;;;;;;;5.57;1.90;;;;;;;;;;4975380;28;20042;-62
2021/07/29 14:06:32;;;;;;;9.10;1.95;;;;;;;;;;4975552;28;20077;-62
2021/07/29 14:08:59;;;;;;;5.82;1.63;;;;;;;;;;4978591;28;20548;-62
2021/07/29 14:11:25;;;;;;;3.50;1.73;;;;;;;;;;4976640;28;20533;-62
2021/07/29 14:13:51;;;;;;;4.40;1.73;;;;;;;;;;4979837;28;20133;-62
2021/07/29 14:16:18;;;;;;;5.07;1.75;;;;;;;;;;4971273;28;20542;-62
2021/07/29 14:18:48;;;;;;;10.13;1.75;;;;;;;;;;4975664;28;20061;-62
2021/07/29 14:21:26;;;;;;;6.00;1.40;;;;;;;;;;4976360;28;20141;-61
2021/07/29 14:23:53;;;;;;;3.85;1.73;;;;;;;;;;4976229;28;20141;-61
2021/07/29 14:26:19;;;;;;;6.65;1.73;;;;;;;;;;4970920;28;20078;-62
2021/07/29 14:28:45;;;;;;;5.65;1.35;;;;;;;;;;4978444;28;20142;-61
2021/07/29 14:31:12;;;;;;;3.65;1.40;;;;;;;;;;4973701;28;20142;-62
2021/07/29 14:33:38;;;;;;;7.85;1.67;;;;;;;;;;4973287;28;20158;-61
2021/07/29 14:36:05;;;;;;;9.32;1.73;;;;;;;;;;4975403;28;20058;-61
2021/07/29 14:38:31;;;;;;;6.38;1.60;;;;;;;;;;4974051;28;20121;-61
2021/07/29 14:40:58;;;;;;;9.70;2.08;;;;;;;;;;4981165;28;20134;-61
2021/07/29 14:43:24;;;;;;;4.45;1.50;;;;;;;;;;4972201;28;20129;-61